« 定点 富山空港 2014/7/6 sun | トップページ | うみたか入港 七尾港 2014/7/13 sun »

2014/07/07

定点 富山空港 2014/7/7 mon

七夕なのに、空は雨。川は増水で渡れやしない。

RJNT 070200Z VRB02KT 8000 -SHRA FEW003 BKN040 22/21 Q1006

20140707_rjnt_00b18653

20140707_rjnt_01b18653

20140707_rjnt_02b18653

20140707_rjnt_03b18653

CAL170 RCTP-RJNT B-18653 B737-8Q8

20140707_rjnt_04ja812a

20140707_rjnt_05ja812a

20140707_rjnt_06ja812a

ANA886 RJNT-RJTT JA812A B787-8

20140707_rjnt_07b18653

20140707_rjnt_08b18653

CAL171 RJNT-RCTP B-18653 B737-8Q8

RJNT 070433Z 00000KT 6000 SHRA FEW005 BKN030 BKN050 23/21 Q1006 RMK 1ST005 6CU030 7SC050 A2972

20140707_rjnt_09ja8504

20140707_rjnt_10ja8504

ADO120 RJCC-RJNT JA8504 B737-54K

RJNT 070500Z VRB02KT 8000 -SHRA FEW005 BKN040 BKN050 23/22 Q1006

20140707_rjnt_11ja604a

20140707_rjnt_12ja604a

20140707_rjnt_13ja604a

ANA885 RJTT-RJNT JA604A B767-381ER

20140707_rjnt_14ja8504

20140707_rjnt_15ja8504

ADO121 RJNT-RJCC JA8504 B737-54K

RJNT 070628Z 30003KT 240V040 8000 -SHRA FEW005 BKN008 BKN015 23/22 Q1006 RMK 1ST005 5ST008 6CU015 A2972

20140707_rjnt_16ja604a

20140707_rjnt_17ja604a

20140707_rjnt_18ja604a

20140707_rjnt_19ja604a

ANA888 RJNT-RJTT JA604A B767-381ER

RJNT 070700Z 26010KT 240V300 9999 FEW005 SCT015 BKN025 24/22 Q1006

20140707_rjnt_20ja825a

20140707_rjnt_21ja825a

20140707_rjnt_22ja825a

20140707_rjnt_23ja825a

ANA887 RJTT-RJNT JA825A B787-8

RJNT 070800Z 25007KT 210V280 9999 FEW008 SCT010 BKN040 24/22 Q1007

20140707_rjnt_24ja825a

20140707_rjnt_25ja825a

20140707_rjnt_26ja825a

ANA890 RJNT-RJTT JA825A B787-8

RJTT-RJNT
ANA     /882 JA812A
ANA881/884 JA8568
ANA883/886 JA812A
ANA885/888 JA604A
ANA887/890 JA825A
ANA889/892 JA8290
ANA891       JA8569

RJCC-RJNT
ADO120/121 JA8504

RCTP-RJNT
CAL170/171 B-18653

|

« 定点 富山空港 2014/7/6 sun | トップページ | うみたか入港 七尾港 2014/7/13 sun »

富山空港」カテゴリの記事

コメント

コメントを書く



(ウェブ上には掲載しません)


コメントは記事投稿者が公開するまで表示されません。



トラックバック


この記事へのトラックバック一覧です: 定点 富山空港 2014/7/7 mon:

« 定点 富山空港 2014/7/6 sun | トップページ | うみたか入港 七尾港 2014/7/13 sun »